Last 30 Days

OV-Red Dog 6200'

Daily Data | America/Los_Angeles
as of 1/23/22 3:35 AM PST
Date Daily Max Temp (°F) Time of Max Temp Daily Min Temp (°F) Time of Min Temp Daily Rain (In) New Snow (in) SnowDepth (in) Wind Spd (mph) Daily Max Wind (mph) Time of Max Wind Max Wind Dir (°) Max RH (%) Min RH (%) Wet Bulb (°F) WetB Hrs <28F (hrs) Bat Volt Min Day (V)
1/22/22 39.8 1405 26.6 0714 0.00 0.1 46.7 5.7 19.6 1148 SSE | 153 70 44 27.8 - 12.4
1/21/22 36.8 1341 19.2 0639 0.00 0.1 46.7 5.0 18.6 2352 SSE | 158 98 52 26.5 - 12.4
1/20/22 54.5 1450 17.8 0559 0.00 0.1 46.9 1.6 9.9 1549 NW | 318 96 34 28.5 - 12.4
1/19/22 43.8 1434 17.1 0758 0.00 0.1 47.0 1.1 7.3 1326 SW | 222 96 43 25.3 - 12.4
1/18/22 48.0 1345 19.0 0629 0.00 0.1 47.4 1.0 5.9 0642 NNW | 346 93 40 26.9 - 12.4
1/17/22 48.3 1314 20.3 0525 0.00 0.1 47.7 1.8 11.6 1147 NNW | 342 87 39 28.1 - 12.4
1/16/22 53.0 1339 16.9 0452 0.00 0.2 47.8 1.2 14.8 1415 NNW | 345 85 20 26.0 - 12.4
1/15/22 42.0 1325 16.8 0728 0.00 0.1 47.8 0.7 3.7 2249 NNW | 333 95 48 25.2 - 12.4
1/14/22 44.8 1347 17.3 0616 0.00 0.2 47.6 2.3 13.6 1518 SSW | 213 94 47 27.6 - 12.4
1/13/22 49.1 1407 23.7 2359 0.00 0.1 47.8 8.2 30.4 1048 NNE | 29 78 18 32.9 11.1 12.4
1/12/22 53.6 1349 23.6 0740 0.00 0.2 48.4 1.2 14.5 2353 NNW | 340 90 19 30.9 - 12.4
1/11/22 50.4 1306 19.0 0520 0.00 0.2 48.5 0.8 3.6 1019 NW | 320 92 36 27.2 - 12.4
1/10/22 46.7 1429 16.3 0445 0.00 0.2 47.5 1.0 5.7 1425 NW | 306 91 37 24.6 - 12.4
1/9/22 41.5 1429 13.2 0746 0.00 0.2 47.4 1.0 6.9 0105 NW | 320 96 44 21.9 - 12.4
1/8/22 38.3 1350 17.2 0811 0.01 0.2 47.4 1.4 6.6 2301 NW | 326 98 44 23.5 - 12.4
1/7/22 41.8 0028 25.8 0001 0.01 0.1 39.7 8.5 39.2 0236 NNE | 28 98 59 33.1 3.8 12.4
1/6/22 48.9 1321 26.0 0623 0.01 - 49.8 4.5 22.4 2258 NNW | 333 100 44 34.8 16.2 12.4
1/5/22 47.4 1424 29.7 2349 0.01 - 50.4 5.1 33.4 0124 NNW | 330 99 59 36.1 0.0 12.4
1/4/22 37.4 2158 34.4 1730 0.00 - 51.3 11.8 42.1 0050 NNE | 32 93 77 34.5 0.0 12.4
1/3/22 36.1 2326 29.5 0401 0.00 0.0 51.8 17.1 39.5 1816 NNE | 16 88 31 27.5 - 12.4
1/2/22 37.5 1348 10.2 0327 0.00 0.4 - 5.8 24.2 0001 NNW | 347 95 27 21.9 - 12.4
1/1/22 32.7 1325 -0.7 0745 0.00 0.2 - 1.0 5.0 1325 NW | 324 92 33 12.5 - 12.4
12/31/21 30.4 1232 5.1 2355 0.00 0.1 - 6.8 28.7 1430 SSW | 197 94 51 21.2 - 12.4
12/30/21 32.4 1152 14.8 0607 0.00 - - 8.2 31.1 1425 NNW | 348 98 69 25.7 - 12.4
12/29/21 30.9 1122 25.3 0511 0.00 27.3 - 3.8 21.6 1144 NNW | 328 96 75 26.2 - 12.4
12/28/21 28.5 1522 21.4 0747 0.00 25.0 - 7.3 27.8 0245 NNE | 30 93 71 22.3 - 12.4
12/27/21 24.7 1231 20.6 1955 0.00 27.7 61.7 11.5 32.0 1340 NNW | 344 96 71 21.9 - 12.4
12/26/21 22.9 1829 17.4 0732 0.00 21.5 - 12.5 36.5 0240 NNW | 328 95 76 19.5 - 12.0
12/25/21 28.8 1208 21.5 2314 0.00 12.1 - 7.9 32.5 0248 N | 1 97 81 25.6 - 12.4
12/24/21 32.3 0936 25.7 1602 0.00 1.3 - 7.1 27.9 1310 NE | 37 100 81 - - 12.4
Max 54.5 - 34.4 - 0.01 27.7 61.7 17.1 42.1 - - 100 81 36.1 16.2 12.4
Avg - - - - - 4.5 48.4 5.1 - - - - - 26.4 - -
Min 22.9 - -0.7 - 0.00 0.0 39.7 0.7 3.6 - - 70 18 12.5 0.0 12.0